sensor_id;sensor_type;location;lat;lon;timestamp;P1;durP1;ratioP1;P2;durP2;ratioP2
830;SDS011;397;50.564;7.272;2022-12-18T00:01:24;38.33;;;22.13;;
830;SDS011;397;50.564;7.272;2022-12-18T00:03:58;39.57;;;21.90;;
830;SDS011;397;50.564;7.272;2022-12-18T00:06:28;44.60;;;23.47;;
830;SDS011;397;50.564;7.272;2022-12-18T00:08:57;39.87;;;22.20;;
830;SDS011;397;50.564;7.272;2022-12-18T00:11:27;40.13;;;22.33;;
830;SDS011;397;50.564;7.272;2022-12-18T00:13:56;36.53;;;20.73;;
830;SDS011;397;50.564;7.272;2022-12-18T00:16:25;38.00;;;24.97;;
830;SDS011;397;50.564;7.272;2022-12-18T00:18:54;38.70;;;22.50;;
830;SDS011;397;50.564;7.272;2022-12-18T00:21:23;39.37;;;21.97;;
830;SDS011;397;50.564;7.272;2022-12-18T00:23:51;40.10;;;22.07;;
830;SDS011;397;50.564;7.272;2022-12-18T00:26:20;38.73;;;20.50;;
830;SDS011;397;50.564;7.272;2022-12-18T00:28:49;33.87;;;20.97;;
830;SDS011;397;50.564;7.272;2022-12-18T00:31:19;36.37;;;21.77;;
830;SDS011;397;50.564;7.272;2022-12-18T00:33:48;33.63;;;19.37;;
830;SDS011;397;50.564;7.272;2022-12-18T00:36:17;37.70;;;21.87;;
830;SDS011;397;50.564;7.272;2022-12-18T00:38:49;41.70;;;21.40;;
830;SDS011;397;50.564;7.272;2022-12-18T00:41:18;32.33;;;18.87;;
830;SDS011;397;50.564;7.272;2022-12-18T00:44:04;32.27;;;18.90;;
830;SDS011;397;50.564;7.272;2022-12-18T00:46:32;41.17;;;22.50;;
830;SDS011;397;50.564;7.272;2022-12-18T00:49:00;34.07;;;21.80;;
830;SDS011;397;50.564;7.272;2022-12-18T00:51:28;39.27;;;20.00;;
830;SDS011;397;50.564;7.272;2022-12-18T00:53:55;41.93;;;22.17;;
830;SDS011;397;50.564;7.272;2022-12-18T00:56:23;37.87;;;22.20;;
830;SDS011;397;50.564;7.272;2022-12-18T00:58:51;45.30;;;25.67;;
830;SDS011;397;50.564;7.272;2022-12-18T01:01:18;41.93;;;24.93;;
830;SDS011;397;50.564;7.272;2022-12-18T01:03:46;41.83;;;23.17;;
830;SDS011;397;50.564;7.272;2022-12-18T01:06:14;55.93;;;25.00;;
830;SDS011;397;50.564;7.272;2022-12-18T01:08:42;48.47;;;24.57;;
830;SDS011;397;50.564;7.272;2022-12-18T01:11:14;44.53;;;23.50;;
830;SDS011;397;50.564;7.272;2022-12-18T01:13:43;47.87;;;23.47;;
830;SDS011;397;50.564;7.272;2022-12-18T01:16:11;52.33;;;25.83;;
830;SDS011;397;50.564;7.272;2022-12-18T01:18:39;46.43;;;25.43;;
830;SDS011;397;50.564;7.272;2022-12-18T01:21:07;48.93;;;25.10;;
830;SDS011;397;50.564;7.272;2022-12-18T01:23:37;51.40;;;26.80;;
830;SDS011;397;50.564;7.272;2022-12-18T01:26:11;47.50;;;26.50;;
830;SDS011;397;50.564;7.272;2022-12-18T01:28:35;46.03;;;24.17;;
830;SDS011;397;50.564;7.272;2022-12-18T01:31:37;47.57;;;23.60;;
830;SDS011;397;50.564;7.272;2022-12-18T01:33:49;39.13;;;23.50;;
830;SDS011;397;50.564;7.272;2022-12-18T01:36:21;47.70;;;22.20;;
830;SDS011;397;50.564;7.272;2022-12-18T01:38:51;49.13;;;24.47;;
830;SDS011;397;50.564;7.272;2022-12-18T01:41:21;48.07;;;22.33;;
830;SDS011;397;50.564;7.272;2022-12-18T01:43:53;43.10;;;24.17;;
830;SDS011;397;50.564;7.272;2022-12-18T01:46:24;39.30;;;23.17;;
830;SDS011;397;50.564;7.272;2022-12-18T01:48:58;44.93;;;23.13;;
830;SDS011;397;50.564;7.272;2022-12-18T01:51:24;42.17;;;24.57;;
830;SDS011;397;50.564;7.272;2022-12-18T01:53:53;47.77;;;26.33;;
830;SDS011;397;50.564;7.272;2022-12-18T01:56:21;45.60;;;22.90;;
830;SDS011;397;50.564;7.272;2022-12-18T01:58:54;38.63;;;23.53;;
830;SDS011;397;50.564;7.272;2022-12-18T02:01:25;44.13;;;24.03;;
830;SDS011;397;50.564;7.272;2022-12-18T02:03:53;41.33;;;23.53;;
830;SDS011;397;50.564;7.272;2022-12-18T02:06:23;39.83;;;22.20;;
830;SDS011;397;50.564;7.272;2022-12-18T02:09:11;37.27;;;23.07;;
830;SDS011;397;50.564;7.272;2022-12-18T02:11:49;35.07;;;19.50;;
830;SDS011;397;50.564;7.272;2022-12-18T02:17:19;30.03;;;18.57;;
830;SDS011;397;50.564;7.272;2022-12-18T02:20:06;35.83;;;19.20;;
830;SDS011;397;50.564;7.272;2022-12-18T02:22:54;34.47;;;21.10;;
830;SDS011;397;50.564;7.272;2022-12-18T02:25:40;35.13;;;19.20;;
830;SDS011;397;50.564;7.272;2022-12-18T02:28:12;41.97;;;20.90;;
830;SDS011;397;50.564;7.272;2022-12-18T02:30:42;43.77;;;21.07;;
830;SDS011;397;50.564;7.272;2022-12-18T02:33:12;37.87;;;20.87;;
830;SDS011;397;50.564;7.272;2022-12-18T02:35:41;43.50;;;23.37;;
830;SDS011;397;50.564;7.272;2022-12-18T02:38:11;43.67;;;21.80;;
830;SDS011;397;50.564;7.272;2022-12-18T02:40:41;43.03;;;26.10;;
830;SDS011;397;50.564;7.272;2022-12-18T02:43:10;39.73;;;23.60;;
830;SDS011;397;50.564;7.272;2022-12-18T02:45:52;38.47;;;23.07;;
830;SDS011;397;50.564;7.272;2022-12-18T02:48:17;39.23;;;23.57;;
830;SDS011;397;50.564;7.272;2022-12-18T02:51:02;40.60;;;22.27;;
830;SDS011;397;50.564;7.272;2022-12-18T02:53:45;45.13;;;23.60;;
830;SDS011;397;50.564;7.272;2022-12-18T02:58:58;46.33;;;23.87;;
830;SDS011;397;50.564;7.272;2022-12-18T03:01:30;39.70;;;24.70;;
830;SDS011;397;50.564;7.272;2022-12-18T03:04:07;46.37;;;25.23;;
830;SDS011;397;50.564;7.272;2022-12-18T03:06:37;39.07;;;23.90;;
830;SDS011;397;50.564;7.272;2022-12-18T03:09:07;45.40;;;24.90;;
830;SDS011;397;50.564;7.272;2022-12-18T03:11:40;46.17;;;27.03;;
830;SDS011;397;50.564;7.272;2022-12-18T03:14:28;40.60;;;23.80;;
830;SDS011;397;50.564;7.272;2022-12-18T03:17:00;46.80;;;24.53;;
830;SDS011;397;50.564;7.272;2022-12-18T03:19:29;45.07;;;25.33;;
830;SDS011;397;50.564;7.272;2022-12-18T03:22:00;46.70;;;25.30;;
830;SDS011;397;50.564;7.272;2022-12-18T03:24:30;39.33;;;24.90;;
830;SDS011;397;50.564;7.272;2022-12-18T03:27:02;43.00;;;23.30;;
830;SDS011;397;50.564;7.272;2022-12-18T03:29:34;42.17;;;24.37;;
830;SDS011;397;50.564;7.272;2022-12-18T03:32:06;46.83;;;25.50;;
830;SDS011;397;50.564;7.272;2022-12-18T03:34:36;37.57;;;21.20;;
830;SDS011;397;50.564;7.272;2022-12-18T03:37:06;37.60;;;23.63;;
830;SDS011;397;50.564;7.272;2022-12-18T03:39:34;41.77;;;25.03;;
830;SDS011;397;50.564;7.272;2022-12-18T03:45:13;46.83;;;26.07;;
830;SDS011;397;50.564;7.272;2022-12-18T03:48:03;42.37;;;24.80;;
830;SDS011;397;50.564;7.272;2022-12-18T03:53:15;44.13;;;23.37;;
830;SDS011;397;50.564;7.272;2022-12-18T03:55:42;33.40;;;21.10;;
830;SDS011;397;50.564;7.272;2022-12-18T03:58:12;37.90;;;20.60;;
830;SDS011;397;50.564;7.272;2022-12-18T04:00:42;34.60;;;23.27;;
830;SDS011;397;50.564;7.272;2022-12-18T04:03:10;34.70;;;19.63;;
830;SDS011;397;50.564;7.272;2022-12-18T04:05:40;32.23;;;20.20;;
830;SDS011;397;50.564;7.272;2022-12-18T04:08:10;31.47;;;17.07;;
830;SDS011;397;50.564;7.272;2022-12-18T04:10:38;42.07;;;22.37;;
830;SDS011;397;50.564;7.272;2022-12-18T04:13:06;36.00;;;19.60;;
830;SDS011;397;50.564;7.272;2022-12-18T04:15:34;35.43;;;22.83;;
830;SDS011;397;50.564;7.272;2022-12-18T04:18:03;42.17;;;23.43;;
830;SDS011;397;50.564;7.272;2022-12-18T04:20:30;39.20;;;21.10;;
830;SDS011;397;50.564;7.272;2022-12-18T04:22:58;33.97;;;22.47;;
830;SDS011;397;50.564;7.272;2022-12-18T04:25:26;35.57;;;21.30;;
830;SDS011;397;50.564;7.272;2022-12-18T04:27:53;34.47;;;20.20;;
830;SDS011;397;50.564;7.272;2022-12-18T04:30:20;36.60;;;22.20;;
830;SDS011;397;50.564;7.272;2022-12-18T04:32:48;35.47;;;18.13;;
830;SDS011;397;50.564;7.272;2022-12-18T04:35:16;38.07;;;20.13;;
830;SDS011;397;50.564;7.272;2022-12-18T04:37:43;36.77;;;19.60;;
830;SDS011;397;50.564;7.272;2022-12-18T04:40:11;32.00;;;18.90;;
830;SDS011;397;50.564;7.272;2022-12-18T04:42:39;27.67;;;15.47;;
830;SDS011;397;50.564;7.272;2022-12-18T04:45:07;29.90;;;19.40;;
830;SDS011;397;50.564;7.272;2022-12-18T04:47:35;39.20;;;19.77;;
830;SDS011;397;50.564;7.272;2022-12-18T04:50:03;28.57;;;16.40;;
830;SDS011;397;50.564;7.272;2022-12-18T04:52:31;35.27;;;19.03;;
830;SDS011;397;50.564;7.272;2022-12-18T04:54:58;26.83;;;17.40;;
830;SDS011;397;50.564;7.272;2022-12-18T04:57:26;27.33;;;17.70;;
830;SDS011;397;50.564;7.272;2022-12-18T04:59:53;30.07;;;18.30;;
830;SDS011;397;50.564;7.272;2022-12-18T05:02:21;32.67;;;17.53;;
830;SDS011;397;50.564;7.272;2022-12-18T05:04:48;26.97;;;17.40;;
830;SDS011;397;50.564;7.272;2022-12-18T05:07:16;37.43;;;19.50;;
830;SDS011;397;50.564;7.272;2022-12-18T05:09:43;41.90;;;20.80;;
830;SDS011;397;50.564;7.272;2022-12-18T05:12:11;39.13;;;20.30;;
830;SDS011;397;50.564;7.272;2022-12-18T05:14:38;38.20;;;21.93;;
830;SDS011;397;50.564;7.272;2022-12-18T05:17:06;35.67;;;21.60;;
830;SDS011;397;50.564;7.272;2022-12-18T05:19:33;40.00;;;19.60;;
830;SDS011;397;50.564;7.272;2022-12-18T05:22:01;29.13;;;18.90;;
830;SDS011;397;50.564;7.272;2022-12-18T05:24:28;32.73;;;17.20;;
830;SDS011;397;50.564;7.272;2022-12-18T05:26:56;31.07;;;21.03;;
830;SDS011;397;50.564;7.272;2022-12-18T05:29:23;36.97;;;20.43;;
830;SDS011;397;50.564;7.272;2022-12-18T05:31:51;33.23;;;19.87;;
830;SDS011;397;50.564;7.272;2022-12-18T05:34:18;36.43;;;18.37;;
830;SDS011;397;50.564;7.272;2022-12-18T05:36:46;31.47;;;20.43;;
830;SDS011;397;50.564;7.272;2022-12-18T05:39:13;29.93;;;19.23;;
830;SDS011;397;50.564;7.272;2022-12-18T05:41:41;35.53;;;18.30;;
830;SDS011;397;50.564;7.272;2022-12-18T05:44:08;31.93;;;20.77;;
830;SDS011;397;50.564;7.272;2022-12-18T05:46:36;31.07;;;20.57;;
830;SDS011;397;50.564;7.272;2022-12-18T05:49:03;33.10;;;20.13;;
830;SDS011;397;50.564;7.272;2022-12-18T05:51:31;33.33;;;21.30;;
830;SDS011;397;50.564;7.272;2022-12-18T05:53:58;33.07;;;20.77;;
830;SDS011;397;50.564;7.272;2022-12-18T05:56:26;33.30;;;18.30;;
830;SDS011;397;50.564;7.272;2022-12-18T05:58:53;28.23;;;17.03;;
830;SDS011;397;50.564;7.272;2022-12-18T06:01:22;29.63;;;17.33;;
830;SDS011;397;50.564;7.272;2022-12-18T06:03:52;29.10;;;17.77;;
830;SDS011;397;50.564;7.272;2022-12-18T06:06:22;31.03;;;18.70;;
830;SDS011;397;50.564;7.272;2022-12-18T06:08:51;33.33;;;19.13;;
830;SDS011;397;50.564;7.272;2022-12-18T06:11:21;32.97;;;17.77;;
830;SDS011;397;50.564;7.272;2022-12-18T06:13:51;29.93;;;20.40;;
830;SDS011;397;50.564;7.272;2022-12-18T06:16:19;33.40;;;19.00;;
830;SDS011;397;50.564;7.272;2022-12-18T06:18:47;30.17;;;19.23;;
830;SDS011;397;50.564;7.272;2022-12-18T06:21:14;31.20;;;18.00;;
830;SDS011;397;50.564;7.272;2022-12-18T06:23:42;31.73;;;19.63;;
830;SDS011;397;50.564;7.272;2022-12-18T06:26:10;30.97;;;18.50;;
830;SDS011;397;50.564;7.272;2022-12-18T06:28:39;30.83;;;17.03;;
830;SDS011;397;50.564;7.272;2022-12-18T06:31:06;26.20;;;16.97;;
830;SDS011;397;50.564;7.272;2022-12-18T06:33:35;35.37;;;17.73;;
830;SDS011;397;50.564;7.272;2022-12-18T06:36:03;29.53;;;16.87;;
830;SDS011;397;50.564;7.272;2022-12-18T06:38:33;34.50;;;19.70;;
830;SDS011;397;50.564;7.272;2022-12-18T06:41:08;27.53;;;18.50;;
830;SDS011;397;50.564;7.272;2022-12-18T06:43:38;26.60;;;17.07;;
830;SDS011;397;50.564;7.272;2022-12-18T06:46:06;31.47;;;17.00;;
830;SDS011;397;50.564;7.272;2022-12-18T06:48:33;26.80;;;16.40;;
830;SDS011;397;50.564;7.272;2022-12-18T06:51:01;30.60;;;18.03;;
830;SDS011;397;50.564;7.272;2022-12-18T06:53:29;26.67;;;17.60;;
830;SDS011;397;50.564;7.272;2022-12-18T06:56:02;33.90;;;19.03;;
830;SDS011;397;50.564;7.272;2022-12-18T06:58:31;37.60;;;23.13;;
830;SDS011;397;50.564;7.272;2022-12-18T07:00:59;31.80;;;19.30;;
830;SDS011;397;50.564;7.272;2022-12-18T07:03:31;27.70;;;18.60;;
830;SDS011;397;50.564;7.272;2022-12-18T07:05:58;34.27;;;21.07;;
830;SDS011;397;50.564;7.272;2022-12-18T07:08:26;36.87;;;22.77;;
830;SDS011;397;50.564;7.272;2022-12-18T07:10:55;32.93;;;22.50;;
830;SDS011;397;50.564;7.272;2022-12-18T07:13:22;35.40;;;21.20;;
830;SDS011;397;50.564;7.272;2022-12-18T07:15:50;31.93;;;21.43;;
830;SDS011;397;50.564;7.272;2022-12-18T07:18:17;33.80;;;21.70;;
830;SDS011;397;50.564;7.272;2022-12-18T07:20:45;43.80;;;24.13;;
830;SDS011;397;50.564;7.272;2022-12-18T07:23:12;40.47;;;21.53;;
830;SDS011;397;50.564;7.272;2022-12-18T07:25:40;28.60;;;20.77;;
830;SDS011;397;50.564;7.272;2022-12-18T07:28:07;35.57;;;19.30;;
830;SDS011;397;50.564;7.272;2022-12-18T07:30:36;34.50;;;18.50;;
830;SDS011;397;50.564;7.272;2022-12-18T07:33:04;41.27;;;21.53;;
830;SDS011;397;50.564;7.272;2022-12-18T07:35:32;33.60;;;21.77;;
830;SDS011;397;50.564;7.272;2022-12-18T07:38:00;33.83;;;19.67;;
830;SDS011;397;50.564;7.272;2022-12-18T07:40:27;29.73;;;19.93;;
830;SDS011;397;50.564;7.272;2022-12-18T07:42:55;39.40;;;20.37;;
830;SDS011;397;50.564;7.272;2022-12-18T07:45:22;32.00;;;19.80;;
830;SDS011;397;50.564;7.272;2022-12-18T07:47:50;35.47;;;19.63;;
830;SDS011;397;50.564;7.272;2022-12-18T07:50:17;33.27;;;18.67;;
830;SDS011;397;50.564;7.272;2022-12-18T07:52:45;31.97;;;21.43;;
830;SDS011;397;50.564;7.272;2022-12-18T07:55:12;32.63;;;21.47;;
830;SDS011;397;50.564;7.272;2022-12-18T07:57:40;33.83;;;20.47;;
830;SDS011;397;50.564;7.272;2022-12-18T08:00:08;35.30;;;20.73;;
830;SDS011;397;50.564;7.272;2022-12-18T08:02:36;32.87;;;20.10;;
830;SDS011;397;50.564;7.272;2022-12-18T08:05:03;32.47;;;21.13;;
830;SDS011;397;50.564;7.272;2022-12-18T08:07:31;28.77;;;20.50;;
830;SDS011;397;50.564;7.272;2022-12-18T08:09:59;29.03;;;18.83;;
830;SDS011;397;50.564;7.272;2022-12-18T08:12:26;37.70;;;21.70;;
830;SDS011;397;50.564;7.272;2022-12-18T08:14:54;38.10;;;21.43;;
830;SDS011;397;50.564;7.272;2022-12-18T08:17:21;32.63;;;21.60;;
830;SDS011;397;50.564;7.272;2022-12-18T08:19:49;27.30;;;18.95;;
830;SDS011;397;50.564;7.272;2022-12-18T08:22:17;32.17;;;18.07;;
830;SDS011;397;50.564;7.272;2022-12-18T08:24:44;31.20;;;19.50;;
830;SDS011;397;50.564;7.272;2022-12-18T08:27:12;35.73;;;20.57;;
830;SDS011;397;50.564;7.272;2022-12-18T08:29:39;32.00;;;20.27;;
830;SDS011;397;50.564;7.272;2022-12-18T08:32:07;26.30;;;17.33;;
830;SDS011;397;50.564;7.272;2022-12-18T08:34:34;38.17;;;21.90;;
830;SDS011;397;50.564;7.272;2022-12-18T08:37:02;33.27;;;20.17;;
830;SDS011;397;50.564;7.272;2022-12-18T08:39:30;36.97;;;22.50;;
830;SDS011;397;50.564;7.272;2022-12-18T08:41:57;34.57;;;20.23;;
830;SDS011;397;50.564;7.272;2022-12-18T08:44:43;31.47;;;19.30;;
830;SDS011;397;50.564;7.272;2022-12-18T08:47:10;37.20;;;20.50;;
830;SDS011;397;50.564;7.272;2022-12-18T08:49:38;38.30;;;20.20;;
830;SDS011;397;50.564;7.272;2022-12-18T08:52:06;31.93;;;19.50;;
830;SDS011;397;50.564;7.272;2022-12-18T08:54:33;30.40;;;18.80;;
830;SDS011;397;50.564;7.272;2022-12-18T08:57:01;35.10;;;20.63;;
830;SDS011;397;50.564;7.272;2022-12-18T08:59:28;28.77;;;18.90;;
830;SDS011;397;50.564;7.272;2022-12-18T09:01:56;32.80;;;19.83;;
830;SDS011;397;50.564;7.272;2022-12-18T09:04:23;35.13;;;19.80;;
830;SDS011;397;50.564;7.272;2022-12-18T09:06:51;34.10;;;22.40;;
830;SDS011;397;50.564;7.272;2022-12-18T09:09:18;30.30;;;19.60;;
830;SDS011;397;50.564;7.272;2022-12-18T09:11:46;25.97;;;18.07;;
830;SDS011;397;50.564;7.272;2022-12-18T09:14:14;32.00;;;22.30;;
830;SDS011;397;50.564;7.272;2022-12-18T09:16:41;33.57;;;20.47;;
830;SDS011;397;50.564;7.272;2022-12-18T09:19:09;31.40;;;20.90;;
830;SDS011;397;50.564;7.272;2022-12-18T09:21:36;29.93;;;20.07;;
830;SDS011;397;50.564;7.272;2022-12-18T09:24:08;28.33;;;20.30;;
830;SDS011;397;50.564;7.272;2022-12-18T09:26:38;36.70;;;20.40;;
830;SDS011;397;50.564;7.272;2022-12-18T09:29:05;36.20;;;22.07;;
830;SDS011;397;50.564;7.272;2022-12-18T09:31:36;31.93;;;20.90;;
830;SDS011;397;50.564;7.272;2022-12-18T09:34:05;30.33;;;18.83;;
830;SDS011;397;50.564;7.272;2022-12-18T09:36:32;27.87;;;18.07;;
830;SDS011;397;50.564;7.272;2022-12-18T09:39:00;27.80;;;17.67;;
830;SDS011;397;50.564;7.272;2022-12-18T09:44:23;27.43;;;17.97;;
830;SDS011;397;50.564;7.272;2022-12-18T09:49:49;29.73;;;18.20;;
830;SDS011;397;50.564;7.272;2022-12-18T09:52:19;29.07;;;19.87;;
830;SDS011;397;50.564;7.272;2022-12-18T09:55:05;27.23;;;19.70;;
830;SDS011;397;50.564;7.272;2022-12-18T09:57:33;34.43;;;21.17;;
830;SDS011;397;50.564;7.272;2022-12-18T10:00:11;29.37;;;17.70;;
830;SDS011;397;50.564;7.272;2022-12-18T10:02:35;25.30;;;17.37;;
830;SDS011;397;50.564;7.272;2022-12-18T10:05:07;29.93;;;18.30;;
830;SDS011;397;50.564;7.272;2022-12-18T10:10:38;30.03;;;17.70;;
830;SDS011;397;50.564;7.272;2022-12-18T10:21:26;29.63;;;17.80;;
830;SDS011;397;50.564;7.272;2022-12-18T10:24:02;29.00;;;17.03;;
830;SDS011;397;50.564;7.272;2022-12-18T10:26:29;29.67;;;17.97;;
830;SDS011;397;50.564;7.272;2022-12-18T10:28:58;25.40;;;17.33;;
830;SDS011;397;50.564;7.272;2022-12-18T10:31:27;26.87;;;18.70;;
830;SDS011;397;50.564;7.272;2022-12-18T10:33:54;28.37;;;17.37;;
830;SDS011;397;50.564;7.272;2022-12-18T10:36:23;26.43;;;15.87;;
830;SDS011;397;50.564;7.272;2022-12-18T10:38:51;30.50;;;18.70;;
830;SDS011;397;50.564;7.272;2022-12-18T10:44:10;29.03;;;18.67;;
830;SDS011;397;50.564;7.272;2022-12-18T10:46:39;27.43;;;18.17;;
830;SDS011;397;50.564;7.272;2022-12-18T10:49:18;27.13;;;19.00;;
830;SDS011;397;50.564;7.272;2022-12-18T10:51:50;30.73;;;20.33;;
830;SDS011;397;50.564;7.272;2022-12-18T10:54:22;23.80;;;16.10;;
830;SDS011;397;50.564;7.272;2022-12-18T10:56:52;25.07;;;18.80;;
830;SDS011;397;50.564;7.272;2022-12-18T10:59:22;24.70;;;19.43;;
830;SDS011;397;50.564;7.272;2022-12-18T11:01:51;30.20;;;18.40;;
830;SDS011;397;50.564;7.272;2022-12-18T11:04:24;28.77;;;18.83;;
830;SDS011;397;50.564;7.272;2022-12-18T11:06:57;29.37;;;17.07;;
830;SDS011;397;50.564;7.272;2022-12-18T11:09:32;23.37;;;17.57;;
830;SDS011;397;50.564;7.272;2022-12-18T11:17:21;26.40;;;18.37;;
830;SDS011;397;50.564;7.272;2022-12-18T11:19:58;32.83;;;19.40;;
830;SDS011;397;50.564;7.272;2022-12-18T11:22:30;27.83;;;18.60;;
830;SDS011;397;50.564;7.272;2022-12-18T11:27:39;28.97;;;18.50;;
830;SDS011;397;50.564;7.272;2022-12-18T11:30:20;24.60;;;19.23;;
830;SDS011;397;50.564;7.272;2022-12-18T11:32:38;27.47;;;18.97;;
830;SDS011;397;50.564;7.272;2022-12-18T11:37:40;31.20;;;20.43;;
830;SDS011;397;50.564;7.272;2022-12-18T11:40:15;30.00;;;20.40;;
830;SDS011;397;50.564;7.272;2022-12-18T11:50:31;27.70;;;21.47;;
830;SDS011;397;50.564;7.272;2022-12-18T11:53:00;31.10;;;21.27;;
830;SDS011;397;50.564;7.272;2022-12-18T12:03:48;30.80;;;19.73;;
830;SDS011;397;50.564;7.272;2022-12-18T12:06:40;31.37;;;21.37;;
830;SDS011;397;50.564;7.272;2022-12-18T12:09:17;31.30;;;23.30;;
830;SDS011;397;50.564;7.272;2022-12-18T12:11:53;31.13;;;20.70;;
830;SDS011;397;50.564;7.272;2022-12-18T12:19:48;35.20;;;20.50;;
830;SDS011;397;50.564;7.272;2022-12-18T12:38:42;27.33;;;19.00;;
830;SDS011;397;50.564;7.272;2022-12-18T12:41:19;29.10;;;19.23;;
830;SDS011;397;50.564;7.272;2022-12-18T12:44:08;28.37;;;20.47;;
830;SDS011;397;50.564;7.272;2022-12-18T12:46:38;27.20;;;19.10;;
830;SDS011;397;50.564;7.272;2022-12-18T12:49:10;35.37;;;21.73;;
830;SDS011;397;50.564;7.272;2022-12-18T12:51:52;29.50;;;22.23;;
830;SDS011;397;50.564;7.272;2022-12-18T12:54:21;30.40;;;21.70;;
830;SDS011;397;50.564;7.272;2022-12-18T12:59:31;27.10;;;20.80;;
830;SDS011;397;50.564;7.272;2022-12-18T13:02:11;29.07;;;19.80;;
830;SDS011;397;50.564;7.272;2022-12-18T13:05:04;31.43;;;21.37;;
830;SDS011;397;50.564;7.272;2022-12-18T13:07:50;28.07;;;20.27;;
830;SDS011;397;50.564;7.272;2022-12-18T13:12:56;31.60;;;20.87;;
830;SDS011;397;50.564;7.272;2022-12-18T13:18:20;35.37;;;24.77;;
830;SDS011;397;50.564;7.272;2022-12-18T13:23:31;28.60;;;21.43;;
830;SDS011;397;50.564;7.272;2022-12-18T13:26:28;32.00;;;21.30;;
830;SDS011;397;50.564;7.272;2022-12-18T13:36:44;27.10;;;20.30;;
830;SDS011;397;50.564;7.272;2022-12-18T13:44:39;31.87;;;23.90;;
830;SDS011;397;50.564;7.272;2022-12-18T13:47:53;32.17;;;22.80;;
830;SDS011;397;50.564;7.272;2022-12-18T13:49:56;31.47;;;21.77;;
830;SDS011;397;50.564;7.272;2022-12-18T13:52:25;32.80;;;21.23;;
830;SDS011;397;50.564;7.272;2022-12-18T13:54:55;31.93;;;21.93;;
830;SDS011;397;50.564;7.272;2022-12-18T13:57:33;31.37;;;20.90;;
830;SDS011;397;50.564;7.272;2022-12-18T13:59:58;40.00;;;24.77;;
830;SDS011;397;50.564;7.272;2022-12-18T14:02:27;27.87;;;22.00;;
830;SDS011;397;50.564;7.272;2022-12-18T14:04:55;29.13;;;20.57;;
830;SDS011;397;50.564;7.272;2022-12-18T14:07:23;30.50;;;19.90;;
830;SDS011;397;50.564;7.272;2022-12-18T14:09:53;31.40;;;20.43;;
830;SDS011;397;50.564;7.272;2022-12-18T14:12:24;30.87;;;19.60;;
830;SDS011;397;50.564;7.272;2022-12-18T14:15:20;27.23;;;18.80;;
830;SDS011;397;50.564;7.272;2022-12-18T14:17:49;28.77;;;19.23;;
830;SDS011;397;50.564;7.272;2022-12-18T14:20:18;27.87;;;18.87;;
830;SDS011;397;50.564;7.272;2022-12-18T14:22:46;25.23;;;20.30;;
830;SDS011;397;50.564;7.272;2022-12-18T14:25:16;31.27;;;20.47;;
830;SDS011;397;50.564;7.272;2022-12-18T14:28:32;29.30;;;22.73;;
830;SDS011;397;50.564;7.272;2022-12-18T14:30:26;32.93;;;19.83;;
830;SDS011;397;50.564;7.272;2022-12-18T14:35:56;29.53;;;19.90;;
830;SDS011;397;50.564;7.272;2022-12-18T14:38:32;29.13;;;20.67;;
830;SDS011;397;50.564;7.272;2022-12-18T14:41:14;28.70;;;20.50;;
830;SDS011;397;50.564;7.272;2022-12-18T14:43:43;30.67;;;19.93;;
830;SDS011;397;50.564;7.272;2022-12-18T14:46:26;30.23;;;21.53;;
830;SDS011;397;50.564;7.272;2022-12-18T14:48:55;27.57;;;20.33;;
830;SDS011;397;50.564;7.272;2022-12-18T14:51:24;29.40;;;20.33;;
830;SDS011;397;50.564;7.272;2022-12-18T14:53:54;29.27;;;19.97;;
830;SDS011;397;50.564;7.272;2022-12-18T14:56:24;29.13;;;19.63;;
830;SDS011;397;50.564;7.272;2022-12-18T14:58:54;30.80;;;20.90;;
830;SDS011;397;50.564;7.272;2022-12-18T15:01:31;29.80;;;21.47;;
830;SDS011;397;50.564;7.272;2022-12-18T15:04:01;31.93;;;21.27;;
830;SDS011;397;50.564;7.272;2022-12-18T15:06:31;29.57;;;19.87;;
830;SDS011;397;50.564;7.272;2022-12-18T15:09:02;27.43;;;19.00;;
830;SDS011;397;50.564;7.272;2022-12-18T15:11:35;32.40;;;21.30;;
830;SDS011;397;50.564;7.272;2022-12-18T15:14:23;33.40;;;19.80;;
830;SDS011;397;50.564;7.272;2022-12-18T15:17:02;34.57;;;20.40;;
830;SDS011;397;50.564;7.272;2022-12-18T15:19:34;33.80;;;21.47;;
830;SDS011;397;50.564;7.272;2022-12-18T15:24:51;29.77;;;19.43;;
830;SDS011;397;50.564;7.272;2022-12-18T15:27:25;32.67;;;22.17;;
830;SDS011;397;50.564;7.272;2022-12-18T15:30:15;29.23;;;20.17;;
830;SDS011;397;50.564;7.272;2022-12-18T15:32:36;30.00;;;22.77;;
830;SDS011;397;50.564;7.272;2022-12-18T15:37:40;31.27;;;21.97;;
830;SDS011;397;50.564;7.272;2022-12-18T15:40:11;31.70;;;21.10;;
830;SDS011;397;50.564;7.272;2022-12-18T15:42:48;34.17;;;23.50;;
830;SDS011;397;50.564;7.272;2022-12-18T15:45:35;36.07;;;20.53;;
830;SDS011;397;50.564;7.272;2022-12-18T15:48:04;34.60;;;20.23;;
830;SDS011;397;50.564;7.272;2022-12-18T15:50:36;29.20;;;20.63;;
830;SDS011;397;50.564;7.272;2022-12-18T15:53:03;30.13;;;22.40;;
830;SDS011;397;50.564;7.272;2022-12-18T15:55:31;35.43;;;21.40;;
830;SDS011;397;50.564;7.272;2022-12-18T15:58:17;31.53;;;21.33;;
830;SDS011;397;50.564;7.272;2022-12-18T16:00:45;36.67;;;22.90;;
830;SDS011;397;50.564;7.272;2022-12-18T16:03:13;33.50;;;22.23;;
830;SDS011;397;50.564;7.272;2022-12-18T16:05:41;33.67;;;21.93;;
830;SDS011;397;50.564;7.272;2022-12-18T16:08:08;29.70;;;22.23;;
830;SDS011;397;50.564;7.272;2022-12-18T16:10:36;31.07;;;21.83;;
830;SDS011;397;50.564;7.272;2022-12-18T16:13:03;35.57;;;23.53;;
830;SDS011;397;50.564;7.272;2022-12-18T16:15:31;32.80;;;21.73;;
830;SDS011;397;50.564;7.272;2022-12-18T16:17:58;35.73;;;23.87;;
830;SDS011;397;50.564;7.272;2022-12-18T16:20:25;36.23;;;23.13;;
830;SDS011;397;50.564;7.272;2022-12-18T16:22:53;38.30;;;23.23;;
830;SDS011;397;50.564;7.272;2022-12-18T16:25:23;32.47;;;23.10;;
830;SDS011;397;50.564;7.272;2022-12-18T16:27:52;35.03;;;23.37;;
830;SDS011;397;50.564;7.272;2022-12-18T16:30:25;34.17;;;22.53;;
830;SDS011;397;50.564;7.272;2022-12-18T16:32:54;33.50;;;23.97;;
830;SDS011;397;50.564;7.272;2022-12-18T16:35:22;32.93;;;22.47;;
830;SDS011;397;50.564;7.272;2022-12-18T16:37:50;37.83;;;24.20;;
830;SDS011;397;50.564;7.272;2022-12-18T16:40:18;31.70;;;22.17;;
830;SDS011;397;50.564;7.272;2022-12-18T16:42:46;39.67;;;25.53;;
830;SDS011;397;50.564;7.272;2022-12-18T16:45:16;31.20;;;23.23;;
830;SDS011;397;50.564;7.272;2022-12-18T16:47:45;36.47;;;24.07;;
830;SDS011;397;50.564;7.272;2022-12-18T16:50:12;36.03;;;23.87;;
830;SDS011;397;50.564;7.272;2022-12-18T16:52:40;39.90;;;23.53;;
830;SDS011;397;50.564;7.272;2022-12-18T16:55:08;36.40;;;24.40;;
830;SDS011;397;50.564;7.272;2022-12-18T16:57:36;32.97;;;23.47;;
830;SDS011;397;50.564;7.272;2022-12-18T17:00:04;37.07;;;23.93;;
830;SDS011;397;50.564;7.272;2022-12-18T17:02:32;37.20;;;23.83;;
830;SDS011;397;50.564;7.272;2022-12-18T17:05:00;35.27;;;23.33;;
830;SDS011;397;50.564;7.272;2022-12-18T17:07:27;44.80;;;25.83;;
830;SDS011;397;50.564;7.272;2022-12-18T17:09:55;34.70;;;25.37;;
830;SDS011;397;50.564;7.272;2022-12-18T17:12:22;38.77;;;24.77;;
830;SDS011;397;50.564;7.272;2022-12-18T17:14:51;33.77;;;23.30;;
830;SDS011;397;50.564;7.272;2022-12-18T17:17:19;36.60;;;25.77;;
830;SDS011;397;50.564;7.272;2022-12-18T17:19:46;38.90;;;24.93;;
830;SDS011;397;50.564;7.272;2022-12-18T17:22:13;34.60;;;24.17;;
830;SDS011;397;50.564;7.272;2022-12-18T17:24:41;33.77;;;24.43;;
830;SDS011;397;50.564;7.272;2022-12-18T17:27:08;34.07;;;24.23;;